Time;durP1;ratioP1;P1;durP2;ratioP2;P2;SDS_P1;SDS_P2;PMS_P1;PMS_P2;Temp;Humidity;BMP_temperature;BMP_pressure;BME280_temperature;BME280_humidity;BME280_pressure;Samples;Min_cycle;Max_cycle;Signal;HPM_P1;HPM_P2
2021/07/11 00:01:56;;;;;;;5.53;3.00;;;17.70;93.30;;;;;;5042536;28;20188;-73
2021/07/11 00:04:22;;;;;;;4.07;2.83;;;17.70;93.40;;;;;;5047087;28;20188;-74
2021/07/11 00:06:48;;;;;;;6.30;3.33;;;17.70;93.00;;;;;;5044496;28;20292;-75
2021/07/11 00:09:14;;;;;;;3.70;2.70;;;17.70;93.10;;;;;;5049527;28;20560;-74
2021/07/11 00:11:39;;;;;;;4.30;2.83;;;17.60;93.40;;;;;;5050698;28;20655;-73
2021/07/11 00:14:05;;;;;;;4.20;2.73;;;17.50;93.90;;;;;;5045287;28;20188;-74
2021/07/11 00:16:33;;;;;;;4.20;2.77;;;17.40;94.70;;;;;;5047369;28;20212;-75
2021/07/11 00:18:59;;;;;;;5.73;2.90;;;17.30;95.00;;;;;;5035008;28;20583;-76
2021/07/11 00:21:25;;;;;;;3.97;2.90;;;17.20;95.40;;;;;;5044593;28;20455;-75
2021/07/11 00:23:51;;;;;;;6.13;3.30;;;17.10;95.40;;;;;;5049809;28;20425;-74
2021/07/11 00:26:17;;;;;;;4.10;2.70;;;17.00;95.50;;;;;;5045704;28;20446;-75
2021/07/11 00:28:44;;;;;;;3.70;2.67;;;17.00;96.10;;;;;;5049636;28;20445;-73
2021/07/11 00:31:10;;;;;;;7.00;3.67;;;16.90;96.60;;;;;;5043793;28;20423;-74
2021/07/11 00:33:35;;;;;;;4.47;2.80;;;16.90;96.60;;;;;;5047775;28;20479;-75
2021/07/11 00:36:01;;;;;;;3.70;2.83;;;16.90;96.60;;;;;;5042341;28;20671;-74
2021/07/11 00:38:27;;;;;;;4.90;2.70;;;16.80;96.60;;;;;;5043668;28;20211;-74
2021/07/11 00:40:53;;;;;;;5.70;3.03;;;16.70;96.60;;;;;;5044115;28;20184;-73
2021/07/11 00:43:19;;;;;;;4.80;2.90;;;16.70;96.60;;;;;;5053317;28;20196;-75
2021/07/11 00:45:45;;;;;;;5.33;2.70;;;16.70;96.20;;;;;;5054285;28;20433;-76
2021/07/11 00:48:10;;;;;;;6.20;2.63;;;16.70;95.90;;;;;;5050975;28;20491;-74
2021/07/11 00:50:36;;;;;;;5.07;3.10;;;16.70;95.50;;;;;;5038838;28;20207;-74
2021/07/11 00:53:07;;;;;;;4.50;2.77;;;16.70;95.40;;;;;;5043937;28;20202;-74
2021/07/11 00:55:34;;;;;;;3.90;2.60;;;16.70;95.10;;;;;;5050168;28;20576;-74
2021/07/11 00:58:00;;;;;;;5.73;2.70;;;16.80;95.10;;;;;;5043421;28;20764;-74
2021/07/11 01:00:26;;;;;;;7.40;3.13;;;16.80;94.80;;;;;;5042952;28;20465;-74
2021/07/11 01:02:57;;;;;;;3.13;2.50;;;16.80;94.10;;;;;;5038710;28;20466;-74
2021/07/11 01:05:26;;;;;;;4.63;2.47;;;16.80;94.20;;;;;;5042012;28;20416;-73
2021/07/11 01:08:34;;;;;;;4.77;2.50;;;16.90;93.80;;;;;;5044597;28;20431;-74
2021/07/11 01:11:08;;;;;;;4.30;2.57;;;16.90;94.00;;;;;;5046309;28;20740;-74
2021/07/11 01:13:36;;;;;;;3.90;3.00;;;16.90;93.40;;;;;;5043459;28;20791;-74
2021/07/11 01:16:07;;;;;;;3.27;2.63;;;16.90;93.40;;;;;;5049633;28;20462;-74
2021/07/11 01:18:37;;;;;;;6.60;2.93;;;16.90;93.60;;;;;;5046777;28;20907;-75
2021/07/11 01:21:07;;;;;;;4.80;2.80;;;16.90;93.50;;;;;;5047807;28;20502;-75
2021/07/11 01:23:57;;;;;;;2.97;2.30;;;17.00;93.50;;;;;;5040230;28;20518;-75
2021/07/11 01:26:25;;;;;;;6.70;3.17;;;17.00;93.00;;;;;;5041819;28;20426;-74
2021/07/11 01:28:53;;;;;;;4.17;2.43;;;17.10;93.10;;;;;;5048996;28;21036;-74
2021/07/11 01:31:24;;;;;;;2.97;2.70;;;17.00;93.20;;;;;;5044479;28;20488;-73
2021/07/11 01:33:50;;;;;;;4.87;3.00;;;17.10;92.90;;;;;;5047182;28;20572;-74
2021/07/11 01:36:17;;;;;;;5.00;3.10;;;17.20;92.70;;;;;;5050251;28;20512;-74
2021/07/11 01:38:45;;;;;;;3.73;2.47;;;17.20;92.30;;;;;;5055967;28;20508;-74
2021/07/11 01:41:13;;;;;;;5.47;2.63;;;17.20;92.10;;;;;;5048634;28;20419;-74
2021/07/11 01:43:40;;;;;;;3.97;2.30;;;17.20;92.20;;;;;;5057180;28;20426;-73
2021/07/11 01:46:08;;;;;;;4.40;2.60;;;17.30;92.20;;;;;;5048937;28;20415;-74
2021/07/11 01:48:36;;;;;;;3.37;3.00;;;17.30;92.00;;;;;;5046135;28;20510;-75
2021/07/11 01:51:03;;;;;;;2.97;2.03;;;17.30;92.10;;;;;;5055888;28;20423;-74
2021/07/11 01:53:35;;;;;;;3.77;2.50;;;17.40;92.50;;;;;;5059713;28;20931;-74
2021/07/11 01:56:03;;;;;;;3.27;2.30;;;17.50;92.40;;;;;;5050990;28;20840;-74
2021/07/11 01:58:29;;;;;;;3.50;2.63;;;17.50;92.30;;;;;;5051958;28;20443;-75
2021/07/11 02:00:55;;;;;;;4.87;2.97;;;17.50;91.90;;;;;;5051059;28;20526;-74
2021/07/11 02:03:24;;;;;;;2.90;2.53;;;17.60;92.00;;;;;;5050224;28;20185;-74
2021/07/11 02:05:50;;;;;;;4.67;2.40;;;17.60;91.60;;;;;;5051030;28;20453;-74
2021/07/11 02:08:17;;;;;;;3.90;2.97;;;17.60;91.30;;;;;;5047233;28;20434;-74
2021/07/11 02:10:45;;;;;;;4.57;2.83;;;17.50;91.60;;;;;;5043359;28;20676;-74
2021/07/11 02:13:15;;;;;;;4.20;2.90;;;17.50;91.70;;;;;;5043830;28;20435;-72
2021/07/11 02:15:48;;;;;;;5.10;2.77;;;17.50;91.90;;;;;;5054442;28;20524;-73
2021/07/11 02:18:18;;;;;;;3.90;2.63;;;17.50;91.90;;;;;;5054559;28;20423;-73
2021/07/11 02:20:48;;;;;;;5.67;2.93;;;17.40;91.80;;;;;;5063466;28;20418;-76
2021/07/11 02:23:15;;;;;;;2.90;2.13;;;17.40;91.60;;;;;;5062586;28;20415;-75
2021/07/11 02:25:41;;;;;;;4.13;2.43;;;17.40;91.50;;;;;;5061376;28;20434;-76
2021/07/11 02:28:07;;;;;;;4.00;2.70;;;17.30;91.50;;;;;;5064357;28;20423;-76
2021/07/11 02:30:52;;;;;;;3.20;2.50;;;17.20;92.00;;;;;;5055813;28;20460;-74
2021/07/11 02:33:26;;;;;;;4.80;2.87;;;17.30;92.10;;;;;;5047844;28;20429;-75
2021/07/11 02:35:53;;;;;;;4.53;2.90;;;17.30;92.30;;;;;;5052444;28;20513;-75
2021/07/11 02:38:20;;;;;;;4.07;2.80;;;17.20;92.20;;;;;;5052334;28;20411;-75
2021/07/11 02:40:47;;;;;;;3.40;2.70;;;17.10;92.60;;;;;;5049720;28;20514;-74
2021/07/11 02:43:15;;;;;;;5.20;2.90;;;17.10;92.60;;;;;;5052461;28;20813;-74
2021/07/11 02:45:43;;;;;;;3.57;2.60;;;17.10;92.50;;;;;;5055562;28;20427;-74
2021/07/11 02:48:10;;;;;;;3.37;2.40;;;17.10;92.60;;;;;;5054341;28;20487;-75
2021/07/11 02:50:37;;;;;;;3.07;2.30;;;17.10;92.60;;;;;;5055957;28;20422;-74
2021/07/11 02:53:04;;;;;;;5.40;3.40;;;17.10;92.90;;;;;;5055553;28;20426;-75
2021/07/11 02:55:36;;;;;;;4.50;2.93;;;17.00;93.10;;;;;;5056483;28;20464;-75
2021/07/11 02:58:12;;;;;;;3.60;2.60;;;17.00;93.30;;;;;;5051987;28;20423;-75
2021/07/11 03:00:39;;;;;;;3.77;2.60;;;17.10;93.20;;;;;;5062750;28;20434;-76
2021/07/11 03:03:08;;;;;;;4.43;3.00;;;17.00;93.30;;;;;;5062713;28;20418;-74
2021/07/11 03:05:34;;;;;;;3.57;2.90;;;17.00;93.40;;;;;;5048805;28;20423;-74
2021/07/11 03:08:01;;;;;;;3.70;2.63;;;17.00;93.30;;;;;;5061583;28;20441;-76
2021/07/11 03:10:27;;;;;;;5.90;2.60;;;17.00;93.50;;;;;;5062022;28;20203;-74
2021/07/11 03:12:58;;;;;;;4.67;2.70;;;17.00;93.40;;;;;;5061197;28;20691;-75
2021/07/11 03:15:25;;;;;;;5.87;2.70;;;17.00;93.70;;;;;;5054140;28;20889;-76
2021/07/11 03:17:53;;;;;;;4.90;2.63;;;17.00;93.70;;;;;;5051230;28;20431;-75
2021/07/11 03:20:20;;;;;;;6.40;3.70;;;17.00;93.60;;;;;;5049615;28;20435;-75
2021/07/11 03:22:46;;;;;;;4.37;2.83;;;17.00;93.80;;;;;;5048940;28;20790;-75
2021/07/11 03:25:13;;;;;;;3.67;2.67;;;17.00;94.00;;;;;;5048685;28;20432;-75
2021/07/11 03:27:40;;;;;;;3.20;2.90;;;16.90;94.30;;;;;;5051592;28;20427;-76
2021/07/11 03:30:08;;;;;;;3.20;2.40;;;16.90;94.60;;;;;;5051560;28;20457;-75
2021/07/11 03:32:51;;;;;;;3.97;2.53;;;16.90;94.80;;;;;;5050972;28;20428;-75
2021/07/11 03:35:20;;;;;;;3.73;2.83;;;16.90;94.90;;;;;;5050630;28;20450;-76
2021/07/11 03:37:49;;;;;;;3.30;2.50;;;16.90;94.60;;;;;;5054964;28;20458;-75
2021/07/11 03:40:25;;;;;;;3.47;2.60;;;16.90;94.60;;;;;;5055381;28;20454;-74
2021/07/11 03:42:54;;;;;;;3.20;2.53;;;17.00;94.50;;;;;;5054661;28;20417;-74
2021/07/11 03:45:21;;;;;;;3.93;2.60;;;17.00;94.30;;;;;;5047361;28;20497;-73
2021/07/11 03:47:54;;;;;;;4.63;2.83;;;17.00;94.40;;;;;;5048258;28;20502;-73
2021/07/11 03:50:25;;;;;;;2.40;2.10;;;17.00;94.50;;;;;;5044971;28;21010;-75
2021/07/11 03:53:18;;;;;;;3.87;2.90;;;17.00;94.60;;;;;;5046454;28;20780;-73
2021/07/11 03:55:44;;;;;;;4.23;2.90;;;16.90;94.70;;;;;;5047385;28;20498;-74
2021/07/11 03:58:12;;;;;;;5.47;2.30;;;17.00;94.50;;;;;;5047326;28;20419;-74
2021/07/11 04:00:40;;;;;;;5.10;3.07;;;16.90;94.70;;;;;;5047648;28;20940;-73
2021/07/11 04:03:07;;;;;;;4.03;2.70;;;16.90;94.70;;;;;;5044867;28;20975;-73
2021/07/11 04:05:38;;;;;;;4.93;3.20;;;16.80;94.70;;;;;;5045984;28;20481;-73
2021/07/11 04:08:10;;;;;;;4.17;2.67;;;16.90;94.80;;;;;;5053496;28;20417;-74
2021/07/11 04:10:38;;;;;;;5.40;2.93;;;16.90;94.60;;;;;;5043328;28;20419;-73
2021/07/11 04:13:04;;;;;;;4.20;2.80;;;17.00;94.50;;;;;;5048656;28;20426;-74
2021/07/11 04:15:33;;;;;;;3.63;2.50;;;17.00;94.10;;;;;;5045641;28;20449;-74
2021/07/11 04:18:03;;;;;;;3.20;2.50;;;17.00;93.90;;;;;;5055830;28;20643;-74
2021/07/11 04:20:31;;;;;;;3.90;2.63;;;17.00;93.90;;;;;;5048759;28;20917;-75
2021/07/11 04:22:59;;;;;;;4.50;3.43;;;17.00;93.80;;;;;;5042176;28;20442;-74
2021/07/11 04:25:29;;;;;;;3.47;2.73;;;17.00;93.70;;;;;;5047114;28;20422;-73
2021/07/11 04:27:57;;;;;;;4.67;3.13;;;17.10;93.80;;;;;;5047572;28;20450;-72
2021/07/11 04:30:23;;;;;;;4.07;2.80;;;17.20;93.50;;;;;;5049944;28;20435;-74
2021/07/11 04:32:49;;;;;;;4.77;2.83;;;17.20;93.40;;;;;;5044094;28;20572;-73
2021/07/11 04:35:15;;;;;;;3.37;2.50;;;17.40;93.20;;;;;;5048528;28;20450;-74
2021/07/11 04:37:41;;;;;;;3.77;2.50;;;17.40;93.10;;;;;;5045383;28;20211;-75
2021/07/11 04:40:07;;;;;;;3.80;3.00;;;17.50;92.10;;;;;;5048029;28;21025;-73
2021/07/11 04:42:33;;;;;;;5.50;3.17;;;17.50;92.00;;;;;;5048093;28;20197;-73
2021/07/11 04:45:02;;;;;;;5.10;2.70;;;17.50;91.80;;;;;;5046623;28;20419;-74
2021/07/11 04:47:28;;;;;;;6.50;3.00;;;17.50;91.80;;;;;;5054341;28;20184;-75
2021/07/11 04:49:54;;;;;;;6.00;3.10;;;17.60;91.60;;;;;;5056256;28;20501;-73
2021/07/11 04:52:20;;;;;;;4.83;2.93;;;17.60;91.60;;;;;;5062942;28;20426;-73
2021/07/11 04:54:47;;;;;;;7.87;2.80;;;17.60;91.70;;;;;;5066199;28;20199;-72
2021/07/11 04:57:13;;;;;;;3.93;2.77;;;17.60;91.70;;;;;;5062206;28;20690;-74
2021/07/11 04:59:39;;;;;;;5.13;2.80;;;17.50;91.90;;;;;;5053131;28;20453;-75
2021/07/11 05:02:04;;;;;;;5.00;3.00;;;17.50;92.00;;;;;;5053132;28;20176;-75
2021/07/11 05:04:30;;;;;;;3.80;2.83;;;17.60;91.90;;;;;;5053081;28;20256;-74
2021/07/11 05:06:56;;;;;;;4.37;2.43;;;17.60;91.70;;;;;;5045991;28;20187;-74
2021/07/11 05:09:22;;;;;;;4.77;3.07;;;17.70;91.30;;;;;;5048984;28;20207;-73
2021/07/11 05:11:47;;;;;;;4.17;2.57;;;17.60;91.50;;;;;;5052456;28;20265;-75
2021/07/11 05:14:13;;;;;;;6.20;3.00;;;17.60;91.60;;;;;;5052983;28;20543;-74
2021/07/11 05:16:39;;;;;;;4.33;2.93;;;17.60;91.70;;;;;;5053374;28;20736;-74
2021/07/11 05:19:05;;;;;;;3.73;2.80;;;17.60;91.70;;;;;;5047722;28;20192;-74
2021/07/11 05:21:31;;;;;;;5.03;2.60;;;17.60;91.80;;;;;;5050166;28;20216;-75
2021/07/11 05:23:57;;;;;;;3.40;2.80;;;17.60;92.10;;;;;;5060794;28;20264;-75
2021/07/11 05:26:24;;;;;;;4.20;2.60;;;17.50;92.20;;;;;;5063636;28;20502;-75
2021/07/11 05:28:50;;;;;;;8.33;3.50;;;17.60;92.60;;;;;;5055349;28;20444;-73
2021/07/11 05:31:16;;;;;;;5.30;2.63;;;17.60;92.40;;;;;;5057298;28;20967;-72
2021/07/11 05:33:42;;;;;;;4.57;3.20;;;17.60;92.40;;;;;;5066629;28;20423;-74
2021/07/11 05:36:09;;;;;;;5.53;3.10;;;17.70;92.60;;;;;;5065086;28;20236;-75
2021/07/11 05:38:36;;;;;;;3.97;2.70;;;17.80;92.20;;;;;;5049522;28;20450;-74
2021/07/11 05:41:03;;;;;;;4.73;2.60;;;17.80;91.50;;;;;;5045804;28;20439;-74
2021/07/11 05:43:29;;;;;;;4.03;2.80;;;17.80;91.70;;;;;;5052664;28;20922;-74
2021/07/11 05:45:55;;;;;;;5.57;2.90;;;17.90;91.60;;;;;;5049979;28;20429;-74
2021/07/11 05:48:20;;;;;;;4.17;2.83;;;17.90;91.40;;;;;;5052817;28;20213;-73
2021/07/11 05:50:46;;;;;;;3.80;3.00;;;18.10;91.20;;;;;;5054178;28;20220;-76
2021/07/11 05:53:12;;;;;;;5.10;3.30;;;18.20;90.30;;;;;;5048793;28;20527;-75
2021/07/11 05:55:39;;;;;;;4.90;3.37;;;18.10;90.20;;;;;;5053397;28;20595;-74
2021/07/11 05:58:06;;;;;;;4.70;2.97;;;18.10;90.30;;;;;;5052572;28;20472;-75
2021/07/11 06:00:31;;;;;;;5.20;3.40;;;18.00;90.30;;;;;;5053231;28;20436;-75
2021/07/11 06:02:57;;;;;;;4.63;3.10;;;18.00;90.70;;;;;;5048827;28;20418;-75
2021/07/11 06:05:23;;;;;;;4.70;2.97;;;18.10;90.40;;;;;;5044416;28;20186;-75
2021/07/11 06:07:49;;;;;;;6.00;3.07;;;18.20;89.90;;;;;;5049374;28;20655;-73
2021/07/11 06:10:16;;;;;;;4.73;3.37;;;18.20;89.70;;;;;;5048043;28;20205;-74
2021/07/11 06:12:42;;;;;;;4.93;2.80;;;18.30;88.40;;;;;;5050654;28;20271;-75
2021/07/11 06:15:09;;;;;;;4.93;2.80;;;18.30;88.40;;;;;;5051672;28;20922;-74
2021/07/11 06:17:35;;;;;;;4.07;2.70;;;18.40;88.40;;;;;;5051434;28;20462;-73
2021/07/11 06:20:06;;;;;;;4.43;3.40;;;18.50;86.90;;;;;;5051314;28;20435;-74
2021/07/11 06:22:32;;;;;;;10.17;3.37;;;18.50;87.00;;;;;;5050475;28;20505;-72
2021/07/11 06:24:57;;;;;;;5.37;3.00;;;18.50;87.30;;;;;;5041363;28;20448;-74
2021/07/11 06:27:23;;;;;;;4.00;3.20;;;18.60;87.30;;;;;;5051458;28;20437;-72
2021/07/11 06:29:50;;;;;;;5.63;2.83;;;18.80;85.50;;;;;;5051507;28;20205;-75
2021/07/11 06:32:15;;;;;;;6.00;3.03;;;18.80;84.70;;;;;;5044147;28;20551;-73
2021/07/11 06:34:41;;;;;;;5.47;3.00;;;18.80;82.40;;;;;;5050237;28;20444;-74
2021/07/11 06:37:07;;;;;;;5.23;2.90;;;18.80;81.80;;;;;;5050508;28;20519;-74
2021/07/11 06:39:33;;;;;;;4.53;2.57;;;18.70;80.30;;;;;;5049372;28;20245;-74
2021/07/11 06:41:59;;;;;;;7.83;2.70;;;18.80;79.30;;;;;;5051189;28;20187;-74
2021/07/11 06:44:25;;;;;;;3.97;2.63;;;18.80;79.30;;;;;;5043406;28;20437;-73
2021/07/11 06:46:50;;;;;;;4.23;3.23;;;19.00;80.00;;;;;;5050580;28;20177;-74
2021/07/11 06:49:16;;;;;;;3.00;2.23;;;19.10;79.00;;;;;;5041916;28;20217;-74
2021/07/11 06:51:42;;;;;;;7.30;3.00;;;19.10;78.60;;;;;;5046621;28;20506;-73
2021/07/11 06:54:08;;;;;;;3.13;2.93;;;19.10;78.70;;;;;;5051098;28;20214;-74
2021/07/11 06:56:33;;;;;;;4.17;2.97;;;19.20;78.90;;;;;;5051285;28;20222;-75
2021/07/11 06:58:59;;;;;;;3.67;2.50;;;19.30;78.60;;;;;;5046578;28;20198;-76
2021/07/11 07:01:25;;;;;;;7.00;2.63;;;19.30;78.10;;;;;;5050357;28;20183;-75
2021/07/11 07:03:51;;;;;;;6.67;2.80;;;19.40;77.40;;;;;;5044023;28;20488;-74
2021/07/11 07:06:16;;;;;;;5.27;2.43;;;19.20;77.60;;;;;;5039099;28;20199;-74
2021/07/11 07:08:42;;;;;;;5.13;2.87;;;19.10;77.80;;;;;;5047513;28;20215;-76
2021/07/11 07:11:08;;;;;;;2.83;2.67;;;19.00;78.70;;;;;;5058049;28;20194;-75
2021/07/11 07:13:33;;;;;;;4.87;2.50;;;19.00;78.90;;;;;;5055649;28;20217;-73
2021/07/11 07:15:59;;;;;;;3.37;2.60;;;18.90;77.10;;;;;;5055290;28;20245;-74
2021/07/11 07:18:25;;;;;;;3.53;2.60;;;18.90;78.30;;;;;;5056478;28;20211;-74
2021/07/11 07:20:51;;;;;;;3.53;2.07;;;19.00;78.30;;;;;;5053614;28;20178;-75
2021/07/11 07:23:17;;;;;;;4.37;2.87;;;19.10;78.40;;;;;;5055771;28;20433;-74
2021/07/11 07:25:42;;;;;;;5.30;2.50;;;19.20;78.00;;;;;;5055537;28;20194;-73
2021/07/11 07:28:10;;;;;;;3.03;2.30;;;19.20;78.00;;;;;;5042703;28;20216;-74
2021/07/11 07:30:37;;;;;;;6.10;3.43;;;19.30;78.40;;;;;;5047733;28;20534;-74
2021/07/11 07:33:03;;;;;;;5.30;2.77;;;19.40;78.90;;;;;;5047057;28;20472;-73
2021/07/11 07:35:28;;;;;;;5.07;2.50;;;19.50;77.60;;;;;;5053999;28;20848;-75
2021/07/11 07:37:54;;;;;;;5.60;2.80;;;19.60;77.30;;;;;;5051196;28;20180;-75
2021/07/11 07:40:21;;;;;;;5.30;3.00;;;19.70;76.40;;;;;;5047948;28;20571;-73
2021/07/11 07:42:48;;;;;;;10.47;2.97;;;19.90;75.70;;;;;;5052389;28;20184;-75
2021/07/11 07:45:15;;;;;;;4.57;2.73;;;19.90;75.80;;;;;;5047545;28;20418;-73
2021/07/11 07:47:41;;;;;;;4.17;2.50;;;20.00;75.20;;;;;;5052080;28;20425;-75
2021/07/11 07:50:09;;;;;;;4.00;3.03;;;20.10;73.70;;;;;;5054073;28;20434;-74
2021/07/11 07:52:36;;;;;;;3.87;2.47;;;20.10;73.90;;;;;;5044514;28;20194;-76
2021/07/11 07:55:03;;;;;;;3.90;2.57;;;20.30;73.50;;;;;;5043674;28;20440;-74
2021/07/11 07:57:29;;;;;;;4.80;2.50;;;20.20;73.90;;;;;;5043410;28;20546;-74
2021/07/11 07:59:55;;;;;;;4.67;3.10;;;20.20;74.00;;;;;;5052151;28;21063;-74
2021/07/11 08:02:23;;;;;;;5.10;2.80;;;20.20;74.50;;;;;;5047216;28;20689;-74
2021/07/11 08:04:49;;;;;;;4.10;2.57;;;20.20;74.00;;;;;;5053243;28;20436;-75
2021/07/11 08:07:14;;;;;;;3.20;2.40;;;20.20;74.80;;;;;;5049800;28;20422;-74
2021/07/11 08:09:41;;;;;;;4.40;2.90;;;20.30;74.50;;;;;;5058120;28;20442;-74
2021/07/11 08:12:07;;;;;;;4.80;3.13;;;20.30;73.70;;;;;;5054707;28;20212;-75
2021/07/11 08:14:34;;;;;;;2.70;2.30;;;20.20;74.90;;;;;;5050896;28;20427;-74
2021/07/11 08:16:59;;;;;;;3.70;2.63;;;20.10;74.20;;;;;;5054918;28;20865;-74
2021/07/11 08:19:25;;;;;;;4.90;2.80;;;20.10;74.80;;;;;;5048326;28;20443;-76
2021/07/11 08:21:53;;;;;;;3.03;2.30;;;20.10;74.80;;;;;;5052487;28;20188;-75
2021/07/11 08:24:22;;;;;;;5.87;2.30;;;20.00;74.20;;;;;;5054631;28;20837;-75
2021/07/11 08:26:49;;;;;;;3.10;2.40;;;20.00;72.70;;;;;;5053034;28;20438;-74
2021/07/11 08:29:15;;;;;;;5.63;3.00;;;20.00;73.50;;;;;;5054214;28;20522;-75
2021/07/11 08:31:41;;;;;;;3.87;2.50;;;20.20;73.30;;;;;;5055182;28;20553;-75
2021/07/11 08:34:06;;;;;;;3.73;2.70;;;20.40;72.10;;;;;;5056810;28;20193;-75
2021/07/11 08:36:32;;;;;;;6.50;2.53;;;20.50;71.80;;;;;;5058038;28;20450;-75
2021/07/11 08:38:59;;;;;;;3.00;2.27;;;20.70;69.90;;;;;;5055015;28;20201;-75
2021/07/11 08:41:26;;;;;;;3.87;2.40;;;20.90;67.90;;;;;;5043396;28;20426;-75
2021/07/11 08:43:52;;;;;;;4.07;3.10;;;21.00;68.20;;;;;;5053231;28;21686;-75
2021/07/11 08:46:19;;;;;;;4.23;2.40;;;21.00;68.50;;;;;;5050754;28;20906;-75
2021/07/11 08:48:47;;;;;;;3.97;2.57;;;20.80;68.30;;;;;;5050934;28;20913;-75
2021/07/11 08:51:14;;;;;;;5.13;3.00;;;20.60;68.60;;;;;;5055334;28;20436;-75
2021/07/11 08:53:40;;;;;;;3.10;2.57;;;20.50;69.10;;;;;;5054338;28;20446;-74
2021/07/11 08:56:19;;;;;;;4.20;2.70;;;20.30;68.00;;;;;;5055109;28;20522;-75
2021/07/11 08:58:52;;;;;;;3.37;2.53;;;20.30;68.90;;;;;;5056428;28;20457;-75
2021/07/11 09:01:20;;;;;;;3.40;2.47;;;20.30;69.20;;;;;;5059714;28;20411;-75
2021/07/11 09:04:04;;;;;;;3.37;2.33;;;20.30;68.00;;;;;;5054275;28;20506;-75
2021/07/11 09:06:53;;;;;;;3.50;2.80;;;20.30;68.00;;;;;;5057900;28;20424;-74
2021/07/11 09:09:26;;;;;;;2.50;2.20;;;20.10;68.80;;;;;;5059070;28;20503;-75
2021/07/11 09:11:53;;;;;;;3.70;2.40;;;20.00;70.20;;;;;;5059862;28;20430;-74
2021/07/11 09:14:21;;;;;;;4.70;3.00;;;20.30;70.40;;;;;;5056933;28;20430;-75
2021/07/11 09:16:48;;;;;;;4.90;3.00;;;20.50;70.20;;;;;;5054531;28;20455;-75
2021/07/11 09:19:26;;;;;;;3.90;2.47;;;20.70;69.40;;;;;;5049571;28;20442;-74
2021/07/11 09:21:54;;;;;;;4.43;2.57;;;20.50;69.50;;;;;;5048511;28;20422;-76
2021/07/11 09:24:20;;;;;;;3.00;2.37;;;20.30;69.80;;;;;;5047517;28;20419;-74
2021/07/11 09:26:50;;;;;;;2.77;2.37;;;20.30;71.70;;;;;;5048766;28;20427;-74
2021/07/11 09:29:24;;;;;;;4.30;2.80;;;20.30;71.80;;;;;;5051287;28;20468;-73
2021/07/11 09:31:49;;;;;;;5.20;2.40;;;20.40;71.30;;;;;;5043531;28;20515;-73
2021/07/11 09:34:29;;;;;;;3.07;2.27;;;20.70;72.30;;;;;;5045210;28;20886;-72
2021/07/11 09:37:16;;;;;;;3.80;2.47;;;20.90;71.00;;;;;;5043827;28;20296;-76
2021/07/11 09:39:46;;;;;;;3.90;2.27;;;21.20;69.80;;;;;;5043191;28;20480;-74
2021/07/11 09:42:28;;;;;;;3.40;2.50;;;21.30;68.20;;;;;;5049088;28;20419;-73
2021/07/11 09:44:55;;;;;;;3.67;2.40;;;21.20;68.00;;;;;;5050397;28;20530;-72
2021/07/11 09:47:23;;;;;;;3.50;2.70;;;21.20;68.20;;;;;;5044812;28;20416;-74
2021/07/11 09:50:08;;;;;;;5.73;2.40;;;21.50;67.50;;;;;;5040648;28;20448;-73
2021/07/11 09:52:35;;;;;;;6.93;4.53;;;21.30;67.90;;;;;;5045708;28;20494;-73
2021/07/11 09:55:13;;;;;;;4.40;3.10;;;21.20;68.90;;;;;;5050300;28;20804;-73
2021/07/11 09:57:43;;;;;;;2.90;2.10;;;21.20;69.10;;;;;;5040264;28;20509;-74
2021/07/11 10:00:10;;;;;;;4.23;3.13;;;21.30;68.50;;;;;;5047182;28;20810;-73
2021/07/11 10:02:37;;;;;;;7.40;2.80;;;21.20;69.40;;;;;;5038084;28;20437;-76
2021/07/11 10:05:05;;;;;;;4.20;2.70;;;21.40;69.20;;;;;;5044816;28;20429;-74
2021/07/11 10:07:32;;;;;;;3.80;2.53;;;21.50;68.60;;;;;;5044927;28;20424;-74
2021/07/11 10:09:59;;;;;;;4.57;2.80;;;21.60;68.30;;;;;;5043047;28;20523;-75
2021/07/11 10:12:24;;;;;;;2.63;2.00;;;21.70;67.90;;;;;;5043375;28;20479;-72
2021/07/11 10:14:50;;;;;;;3.23;3.00;;;21.50;68.30;;;;;;5042610;28;20821;-73
2021/07/11 10:17:17;;;;;;;3.63;2.97;;;21.60;68.50;;;;;;5044048;28;20292;-73
2021/07/11 10:19:51;;;;;;;3.90;2.97;;;21.50;68.60;;;;;;5040149;28;20958;-74
2021/07/11 10:22:18;;;;;;;3.60;2.50;;;21.40;69.10;;;;;;5042895;28;20488;-72
2021/07/11 10:24:49;;;;;;;3.10;2.40;;;21.50;68.00;;;;;;5038018;28;20428;-75
2021/07/11 10:27:28;;;;;;;7.33;4.13;;;21.70;67.60;;;;;;5040888;28;20420;-74
2021/07/11 10:29:56;;;;;;;5.10;3.17;;;22.00;66.70;;;;;;5044310;28;20604;-76
2021/07/11 10:32:23;;;;;;;7.43;5.23;;;22.10;66.90;;;;;;5040712;28;20799;-75
2021/07/11 10:34:49;;;;;;;4.80;3.30;;;22.40;65.40;;;;;;5042246;28;21014;-73
2021/07/11 10:37:22;;;;;;;5.93;3.10;;;22.20;65.70;;;;;;5039406;28;20521;-74
2021/07/11 10:40:11;;;;;;;4.87;2.93;;;22.10;66.60;;;;;;5049475;28;21140;-75
2021/07/11 10:42:37;;;;;;;4.23;2.47;;;21.90;67.00;;;;;;5042157;28;20430;-73
2021/07/11 10:45:11;;;;;;;7.13;2.63;;;21.70;66.70;;;;;;5041677;28;20832;-73
2021/07/11 10:47:38;;;;;;;4.43;2.50;;;21.60;67.90;;;;;;5041926;28;20464;-72
2021/07/11 10:50:19;;;;;;;4.67;2.80;;;21.80;67.70;;;;;;5047534;28;20433;-74
2021/07/11 10:52:45;;;;;;;6.10;2.90;;;22.20;68.20;;;;;;5040048;28;20417;-72
2021/07/11 10:55:13;;;;;;;5.33;2.77;;;22.50;65.80;;;;;;5046425;28;20429;-74
2021/07/11 10:57:39;;;;;;;7.40;2.60;;;22.50;65.10;;;;;;5038829;28;20298;-73
2021/07/11 11:00:16;;;;;;;3.63;2.57;;;22.50;62.90;;;;;;5043805;28;20896;-76
2021/07/11 11:02:45;;;;;;;7.13;3.53;;;22.40;64.50;;;;;;5038696;28;20187;-72
2021/07/11 11:05:14;;;;;;;6.70;4.27;;;22.20;65.70;;;;;;5041933;28;20516;-75
2021/07/11 11:07:48;;;;;;;4.80;2.83;;;22.20;65.70;;;;;;5044742;28;21079;-74
2021/07/11 11:10:34;;;;;;;7.00;3.60;;;22.10;63.80;;;;;;5038303;28;20448;-75
2021/07/11 11:13:04;;;;;;;4.17;2.90;;;21.80;65.30;;;;;;5040985;28;20424;-73
2021/07/11 11:15:55;;;;;;;2.93;2.17;;;21.70;65.70;;;;;;5036135;28;20432;-73
2021/07/11 11:18:33;;;;;;;4.40;2.83;;;21.60;66.90;;;;;;5034789;28;20467;-73
2021/07/11 11:21:14;;;;;;;5.53;2.83;;;21.50;67.60;;;;;;5039284;28;20419;-77
2021/07/11 11:23:42;;;;;;;3.23;2.70;;;21.60;68.00;;;;;;5036182;28;21056;-74
2021/07/11 11:26:10;;;;;;;4.83;2.60;;;21.80;67.30;;;;;;5041797;28;20505;-73
2021/07/11 11:28:36;;;;;;;4.13;2.70;;;22.00;66.90;;;;;;5042101;28;20521;-73
2021/07/11 11:31:12;;;;;;;6.30;2.80;;;22.30;65.40;;;;;;5039940;28;20417;-74
2021/07/11 11:34:06;;;;;;;3.47;2.37;;;22.50;64.80;;;;;;5041319;28;20193;-73
2021/07/11 11:36:40;;;;;;;3.53;2.60;;;22.50;64.40;;;;;;5036627;28;20911;-75
2021/07/11 11:39:27;;;;;;;3.10;2.40;;;22.60;64.80;;;;;;5038721;28;20444;-73
2021/07/11 11:41:53;;;;;;;4.53;2.40;;;22.60;62.00;;;;;;5043797;28;20486;-72
2021/07/11 11:44:20;;;;;;;3.47;2.40;;;22.40;61.60;;;;;;5038680;28;20581;-74
2021/07/11 11:46:48;;;;;;;3.20;2.30;;;22.60;62.50;;;;;;5044375;28;21023;-74
2021/07/11 11:49:16;;;;;;;3.73;2.40;;;22.80;61.90;;;;;;5036915;28;20562;-75
2021/07/11 11:51:48;;;;;;;5.03;2.77;;;22.90;60.10;;;;;;5041733;28;20947;-73
2021/07/11 11:54:33;;;;;;;3.60;2.50;;;22.80;60.90;;;;;;5040784;28;20955;-73
2021/07/11 11:57:00;;;;;;;3.50;2.23;;;23.00;61.90;;;;;;5043793;28;20464;-74
2021/07/11 11:59:27;;;;;;;4.30;3.07;;;23.50;60.00;;;;;;5043749;28;20437;-72
2021/07/11 12:01:58;;;;;;;4.97;3.13;;;23.70;58.70;;;;;;5042040;28;20430;-73
2021/07/11 12:04:25;;;;;;;5.23;3.63;;;23.90;59.70;;;;;;5045570;28;20518;-72
2021/07/11 12:06:51;;;;;;;3.17;2.30;;;24.00;59.60;;;;;;5043931;28;20425;-73
2021/07/11 12:09:21;;;;;;;3.20;2.57;;;24.00;58.50;;;;;;5047581;28;20446;-73
2021/07/11 12:12:03;;;;;;;4.87;2.53;;;23.70;59.90;;;;;;5043392;28;20519;-73
2021/07/11 12:14:29;;;;;;;4.60;2.57;;;23.50;59.50;;;;;;5045066;28;20420;-75
2021/07/11 12:17:04;;;;;;;3.83;2.43;;;23.50;59.90;;;;;;5047484;28;20477;-73
2021/07/11 12:19:40;;;;;;;4.40;2.40;;;23.50;60.00;;;;;;5042706;28;20449;-75
2021/07/11 12:22:06;;;;;;;3.67;2.33;;;23.10;60.60;;;;;;5037775;28;20417;-73
2021/07/11 12:24:32;;;;;;;3.27;2.13;;;22.90;61.20;;;;;;5050000;28;20917;-75
2021/07/11 12:27:03;;;;;;;3.23;2.33;;;23.30;60.90;;;;;;5047933;28;20192;-74
2021/07/11 12:29:33;;;;;;;2.30;1.90;;;23.80;60.00;;;;;;5048498;28;20700;-75
2021/07/11 12:32:06;;;;;;;3.70;2.90;;;24.00;58.80;;;;;;5037415;28;20413;-75
2021/07/11 12:34:33;;;;;;;2.83;2.37;;;24.60;58.50;;;;;;5056011;28;20440;-75
2021/07/11 12:37:03;;;;;;;3.60;2.70;;;25.50;55.60;;;;;;5052862;28;20467;-75
2021/07/11 12:39:30;;;;;;;4.03;2.47;;;25.90;54.10;;;;;;5051055;28;20446;-73
2021/07/11 12:41:57;;;;;;;4.70;2.77;;;25.70;54.20;;;;;;5051365;28;20425;-73
2021/07/11 12:44:33;;;;;;;3.20;2.20;;;25.10;55.30;;;;;;5043139;28;20419;-73
2021/07/11 12:47:10;;;;;;;4.43;2.53;;;24.90;56.20;;;;;;5053047;28;20437;-75
2021/07/11 12:49:37;;;;;;;4.33;3.10;;;24.80;56.80;;;;;;5050930;28;20502;-74
2021/07/11 12:52:12;;;;;;;5.30;3.13;;;24.70;57.20;;;;;;5048283;28;20489;-74
2021/07/11 12:54:38;;;;;;;2.93;2.20;;;24.80;58.20;;;;;;5049247;28;20873;-75
2021/07/11 12:57:05;;;;;;;3.60;2.50;;;24.60;57.20;;;;;;5045629;28;20460;-73